Time;durP1;ratioP1;P1;durP2;ratioP2;P2;SDS_P1;SDS_P2;PMS_P1;PMS_P2;Temp;Humidity;BMP_temperature;BMP_pressure;BME280_temperature;BME280_humidity;BME280_pressure;Samples;Min_cycle;Max_cycle;Signal;HPM_P1;HPM_P2
2021/05/10 00:01:03;;;;;;;8.73;3.25;;;;;;;11.16;54.70;94494.22;6081606;23;20046;-85
2021/05/10 00:03:29;;;;;;;5.65;3.40;;;;;;;11.23;54.82;94504.50;6085700;23;20029;-86
2021/05/10 00:05:55;;;;;;;5.22;3.55;;;;;;;11.19;54.89;94498.94;6087259;23;20010;-87
2021/05/10 00:08:25;;;;;;;5.60;3.30;;;;;;;11.23;54.53;94512.44;6082429;23;20006;-86
2021/05/10 00:10:51;;;;;;;6.32;3.58;;;;;;;11.19;54.95;94496.28;6092468;23;20079;-85
2021/05/10 00:13:18;;;;;;;7.10;3.55;;;;;;;11.22;55.17;94495.78;6079463;23;20440;-86
2021/05/10 00:15:44;;;;;;;4.80;3.40;;;;;;;11.20;55.13;94497.09;6082246;23;20023;-85
2021/05/10 00:18:10;;;;;;;4.35;3.80;;;;;;;11.19;55.59;94511.41;6081038;23;20045;-86
2021/05/10 00:20:44;;;;;;;3.97;3.58;;;;;;;11.19;55.72;94508.75;6066081;23;22703;-84
2021/05/10 00:23:10;;;;;;;4.13;3.05;;;;;;;11.17;55.67;94513.53;6060629;23;20026;-85
2021/05/10 00:25:37;;;;;;;5.53;4.20;;;;;;;11.11;55.91;94511.97;6081146;23;20468;-85
2021/05/10 00:28:06;;;;;;;6.07;3.58;;;;;;;11.11;55.74;94506.69;6083493;23;20089;-86
2021/05/10 00:30:33;;;;;;;4.20;3.38;;;;;;;11.12;56.13;94513.56;6068941;23;20026;-86
2021/05/10 00:32:58;;;;;;;5.88;3.70;;;;;;;11.12;56.21;94513.56;6079315;23;20029;-83
2021/05/10 00:35:27;;;;;;;5.32;3.45;;;;;;;11.04;56.22;94500.91;6080555;23;20408;-87
2021/05/10 00:37:53;;;;;;;6.53;3.70;;;;;;;11.01;56.29;94498.81;6084503;23;19998;-86
2021/05/10 00:40:24;;;;;;;6.25;3.63;;;;;;;11.02;56.50;94495.09;6084686;23;20529;-85
2021/05/10 00:42:49;;;;;;;6.50;4.97;;;;;;;11.00;56.78;94499.84;6083339;23;20029;-85
2021/05/10 00:45:15;;;;;;;5.45;3.90;;;;;;;10.95;56.74;94489.31;6082549;23;20101;-85
2021/05/10 00:47:40;;;;;;;6.35;4.30;;;;;;;10.98;57.37;94504.66;6079584;23;20053;-85
2021/05/10 00:50:09;;;;;;;6.38;5.03;;;;;;;10.78;58.06;94493.13;6085156;23;20368;-85
2021/05/10 00:52:35;;;;;;;7.45;4.97;;;;;;;10.78;58.35;94492.31;6079213;23;20018;-82
2021/05/10 00:55:01;;;;;;;7.25;4.90;;;;;;;10.76;58.18;94495.22;6080141;23;20477;-82
2021/05/10 00:57:33;;;;;;;7.85;4.55;;;;;;;10.66;58.89;94479.41;6080677;23;20050;-85
2021/05/10 01:00:01;;;;;;;4.93;4.50;;;;;;;10.75;59.08;94492.88;6088835;23;20018;-86
2021/05/10 01:02:26;;;;;;;6.35;4.97;;;;;;;10.75;59.20;94504.22;6090720;23;20012;-85
2021/05/10 01:04:52;;;;;;;4.68;4.30;;;;;;;10.61;59.88;94490.00;6084059;23;20389;-85
2021/05/10 01:07:17;;;;;;;8.88;4.75;;;;;;;10.61;60.21;94500.59;6071498;23;20212;-85
2021/05/10 01:09:45;;;;;;;7.90;4.95;;;;;;;10.50;60.66;94496.44;6084900;23;20014;-83
2021/05/10 01:12:13;;;;;;;5.22;4.50;;;;;;;10.31;61.16;94485.63;6080096;23;20023;-85
2021/05/10 01:14:44;;;;;;;5.03;4.55;;;;;;;10.32;60.76;94486.44;6087667;23;20014;-86
2021/05/10 01:17:09;;;;;;;5.75;5.18;;;;;;;10.41;60.70;94503.31;6093464;23;20069;-85
2021/05/10 01:19:36;;;;;;;6.18;4.95;;;;;;;10.37;60.95;94483.78;6079800;23;20022;-86
2021/05/10 01:22:03;;;;;;;5.35;4.85;;;;;;;10.33;61.10;94491.44;6082163;23;20034;-85
2021/05/10 01:24:29;;;;;;;7.15;4.72;;;;;;;10.32;61.63;94489.88;6079201;23;20448;-85
2021/05/10 01:26:54;;;;;;;7.30;5.32;;;;;;;10.24;62.34;94492.28;6086908;23;20026;-85
2021/05/10 01:29:20;;;;;;;6.85;5.13;;;;;;;10.15;62.96;94484.09;6079653;23;20452;-85
2021/05/10 01:31:46;;;;;;;6.88;5.15;;;;;;;10.11;63.31;94487.53;6084484;23;20002;-86
2021/05/10 01:34:12;;;;;;;8.95;5.35;;;;;;;10.08;63.47;94485.41;6078814;23;20022;-86
2021/05/10 01:36:37;;;;;;;5.65;5.15;;;;;;;10.05;63.45;94483.31;6084038;23;20468;-83
2021/05/10 01:39:04;;;;;;;6.05;5.55;;;;;;;10.10;63.60;94484.09;6081594;23;20014;-85
2021/05/10 01:41:32;;;;;;;5.93;4.68;;;;;;;9.95;63.74;94466.44;6089023;23;20006;-84
2021/05/10 01:43:57;;;;;;;8.27;5.75;;;;;;;10.04;64.16;94487.03;6093694;23;20414;-84
2021/05/10 01:46:23;;;;;;;6.18;5.60;;;;;;;9.99;64.25;94479.91;6051499;23;20089;-83
2021/05/10 01:48:48;;;;;;;6.28;5.57;;;;;;;10.00;64.38;94486.78;6082204;23;20473;-84
2021/05/10 01:51:14;;;;;;;7.00;5.60;;;;;;;9.94;64.93;94487.84;6087716;23;20022;-84
2021/05/10 01:53:39;;;;;;;8.30;5.47;;;;;;;9.79;65.25;94475.44;6081146;23;20009;-85
2021/05/10 01:56:05;;;;;;;6.43;5.65;;;;;;;9.79;65.70;94485.22;6081383;23;20009;-85
2021/05/10 01:58:30;;;;;;;6.68;5.95;;;;;;;9.77;65.99;94482.88;6082470;23;20029;-86
2021/05/10 02:00:56;;;;;;;7.53;6.55;;;;;;;9.72;66.48;94485.50;6080226;23;20077;-86
2021/05/10 02:03:22;;;;;;;6.95;6.03;;;;;;;9.72;66.48;94485.50;6086526;23;20036;-85
2021/05/10 02:05:49;;;;;;;6.78;6.18;;;;;;;9.55;66.84;94475.22;6079745;23;20052;-86
2021/05/10 02:08:16;;;;;;;6.35;5.80;;;;;;;9.56;67.10;94476.00;6079084;23;20430;-84
2021/05/10 02:10:46;;;;;;;11.32;6.28;;;;;;;9.51;67.16;94486.56;6082907;23;20010;-85
2021/05/10 02:13:16;;;;;;;6.82;6.22;;;;;;;9.56;67.38;94497.13;6081215;23;20025;-86
2021/05/10 02:15:44;;;;;;;7.35;6.38;;;;;;;9.53;67.81;94487.09;6081668;23;20045;-86
2021/05/10 02:18:11;;;;;;;7.00;6.30;;;;;;;9.49;67.89;94486.81;6086244;23;20022;-85
2021/05/10 02:20:37;;;;;;;6.32;5.82;;;;;;;9.44;68.08;94491.31;6080599;23;20017;-83
2021/05/10 02:23:04;;;;;;;6.72;5.97;;;;;;;9.38;68.17;94487.88;6092147;23;20025;-86
2021/05/10 02:25:35;;;;;;;7.20;6.55;;;;;;;9.38;68.20;94489.75;6083253;23;20045;-84
2021/05/10 02:28:02;;;;;;;6.60;6.10;;;;;;;9.26;68.69;94482.09;6083334;23;20552;-86
2021/05/10 02:30:30;;;;;;;11.68;6.18;;;;;;;9.35;68.58;94496.31;6085116;23;20049;-86
2021/05/10 02:32:57;;;;;;;6.72;6.18;;;;;;;9.26;68.73;94487.34;6079987;23;20014;-85
2021/05/10 02:35:23;;;;;;;7.13;6.22;;;;;;;9.18;69.25;94497.66;6082152;23;20006;-86
2021/05/10 02:37:50;;;;;;;9.57;6.70;;;;;;;9.14;69.52;94492.88;6082773;23;20867;-86
2021/05/10 02:40:16;;;;;;;7.25;6.55;;;;;;;9.07;69.98;94495.00;6082791;23;20019;-85
2021/05/10 02:42:42;;;;;;;6.97;6.38;;;;;;;9.11;69.66;94488.13;6082982;23;20121;-85
2021/05/10 02:45:09;;;;;;;7.40;6.43;;;;;;;9.14;69.64;94495.50;6086751;23;20482;-84
2021/05/10 02:47:35;;;;;;;7.63;6.82;;;;;;;9.07;70.10;94495.00;6090326;23;20035;-86
2021/05/10 02:50:03;;;;;;;6.75;6.10;;;;;;;9.01;70.17;94489.97;6082016;23;20018;-86
2021/05/10 02:52:31;;;;;;;10.50;7.60;;;;;;;8.95;70.73;94498.91;6068534;23;20474;-86
2021/05/10 02:54:56;;;;;;;8.18;6.32;;;;;;;8.89;71.01;94498.13;6080315;23;20412;-87
2021/05/10 02:57:22;;;;;;;7.38;6.68;;;;;;;8.65;71.03;94465.38;6084834;23;20117;-87
2021/05/10 02:59:47;;;;;;;7.03;6.32;;;;;;;8.82;71.28;94497.56;6089393;23;20027;-86
2021/05/10 03:02:13;;;;;;;7.30;6.60;;;;;;;8.79;71.57;94497.31;6085763;23;20430;-87
2021/05/10 03:04:41;;;;;;;12.27;7.68;;;;;;;8.88;71.25;94501.81;6081679;23;20106;-86
2021/05/10 03:07:07;;;;;;;8.55;6.80;;;;;;;8.93;71.32;94501.03;6081751;23;20025;-87
2021/05/10 03:09:32;;;;;;;7.88;7.20;;;;;;;8.87;71.32;94494.94;6068661;23;20353;-87
2021/05/10 03:12:05;;;;;;;7.32;6.63;;;;;;;9.00;71.05;94504.19;6070573;23;20056;-86
2021/05/10 03:14:31;;;;;;;6.68;6.00;;;;;;;8.99;70.76;94508.66;6090236;23;20297;-87
2021/05/10 03:16:56;;;;;;;9.55;8.65;;;;;;;8.93;70.95;94498.41;6082601;23;20017;-87
2021/05/10 03:19:22;;;;;;;7.35;6.70;;;;;;;9.13;70.97;94514.25;6081771;23;20018;-86
2021/05/10 03:21:50;;;;;;;12.98;7.07;;;;;;;9.13;70.20;94488.69;6082626;23;20030;-87
2021/05/10 03:24:15;;;;;;;12.00;6.93;;;;;;;9.39;69.67;94505.28;6080900;23;20097;-85
2021/05/10 03:26:41;;;;;;;9.50;7.10;;;;;;;9.70;68.75;94508.72;6082931;23;20096;-86
2021/05/10 03:29:09;;;;;;;7.00;6.20;;;;;;;10.02;67.25;94501.28;6085622;23;20008;-86
2021/05/10 03:31:35;;;;;;;8.55;6.30;;;;;;;10.45;65.03;94498.28;6083068;23;20150;-86
2021/05/10 03:34:01;;;;;;;8.02;5.78;;;;;;;10.82;63.42;94503.94;6078976;23;20018;-86
2021/05/10 03:36:27;;;;;;;22.80;10.23;;;;;;;11.04;62.35;94492.97;6088539;23;20015;-87
2021/05/10 03:38:53;;;;;;;16.05;7.43;;;;;;;11.39;61.51;94505.94;6083208;23;20541;-87
2021/05/10 03:41:22;;;;;;;18.13;10.63;;;;;;;12.06;58.99;94513.13;6081275;23;20430;-86
2021/05/10 03:43:48;;;;;;;17.83;8.43;;;;;;;12.40;57.24;94497.13;6085725;23;20277;-87
2021/05/10 03:46:14;;;;;;;6.33;5.23;;;;;;;12.77;56.07;94503.56;6081199;23;20021;-86
2021/05/10 03:48:39;;;;;;;5.75;5.18;;;;;;;13.31;54.49;94506.56;6084845;23;20362;-87
2021/05/10 03:51:04;;;;;;;9.20;6.13;;;;;;;13.39;54.61;94513.88;6066485;23;20397;-87
2021/05/10 03:53:30;;;;;;;10.07;4.95;;;;;;;13.63;53.39;94507.72;6064899;23;20059;-86
2021/05/10 03:56:15;;;;;;;9.68;5.50;;;;;;;14.15;52.86;94525.16;6081064;23;20096;-85
2021/05/10 03:58:41;;;;;;;9.65;4.45;;;;;;;14.46;51.47;94493.53;6080190;23;20106;-86
2021/05/10 04:01:09;;;;;;;5.65;4.57;;;;;;;15.12;49.15;94517.69;6081464;23;20050;-88
2021/05/10 04:04:22;;;;;;;5.90;4.70;;;;;;;15.87;48.16;94526.97;6102603;23;20361;-87
2021/05/10 04:09:09;;;;;;;5.95;4.20;;;;;;;16.56;45.53;94528.16;6089031;23;20018;-86
2021/05/10 04:14:20;;;;;;;5.88;3.92;;;;;;;17.65;42.73;94519.16;6091793;23;20017;-87
2021/05/10 04:16:45;;;;;;;7.45;3.88;;;;;;;17.99;42.46;94530.91;6093262;23;19995;-87
2021/05/10 04:19:10;;;;;;;5.05;4.55;;;;;;;18.77;40.36;94528.84;6080385;23;20030;-86
2021/05/10 04:21:36;;;;;;;4.45;3.80;;;;;;;19.25;38.79;94523.88;6081682;23;20023;-88
2021/05/10 04:24:04;;;;;;;7.47;3.58;;;;;;;19.47;38.36;94504.03;6047399;23;20019;-88
2021/05/10 04:26:33;;;;;;;6.85;3.83;;;;;;;19.63;38.51;94513.06;6068123;23;20018;-86
2021/05/10 04:29:01;;;;;;;9.60;3.45;;;;;;;20.27;37.18;94526.06;6094452;23;20497;-87
2021/05/10 04:31:26;;;;;;;8.35;4.07;;;;;;;20.48;36.71;94534.06;6083249;23;20018;-88
2021/05/10 04:33:52;;;;;;;12.50;4.38;;;;;;;20.93;35.62;94532.13;6082053;23;20495;-87
2021/05/10 04:36:17;;;;;;;11.13;5.18;;;;;;;21.10;35.25;94537.31;6087723;23;20018;-88
2021/05/10 04:38:46;;;;;;;8.20;3.70;;;;;;;21.45;34.78;94528.78;6090629;23;20021;-87
2021/05/10 04:41:11;;;;;;;10.18;3.75;;;;;;;21.77;34.42;94517.03;6086004;23;20613;-86
2021/05/10 04:43:37;;;;;;;9.77;3.95;;;;;;;22.19;33.55;94519.38;6078880;23;20053;-85
2021/05/10 04:46:03;;;;;;;5.10;3.80;;;;;;;22.30;32.99;94525.81;6081128;23;20439;-87
2021/05/10 04:48:28;;;;;;;6.65;4.03;;;;;;;22.93;31.69;94523.22;6082402;23;20045;-87
2021/05/10 04:50:55;;;;;;;10.10;3.55;;;;;;;23.01;31.73;94514.19;6083185;23;20049;-87
2021/05/10 04:53:20;;;;;;;10.02;4.28;;;;;;;23.94;30.21;94534.00;6068628;23;20384;-86
2021/05/10 04:55:46;;;;;;;4.32;3.28;;;;;;;24.31;29.81;94531.69;6084980;23;20016;-87
2021/05/10 04:58:12;;;;;;;7.95;3.50;;;;;;;24.26;29.92;94524.66;6082885;23;20019;-87
2021/05/10 05:00:37;;;;;;;4.40;3.53;;;;;;;24.34;29.66;94526.34;6083307;23;20014;-87
2021/05/10 05:03:03;;;;;;;6.93;3.50;;;;;;;24.91;28.70;94521.97;6070060;23;20021;-86
2021/05/10 05:05:28;;;;;;;6.60;2.92;;;;;;;25.51;28.29;94528.31;6090843;23;20029;-88
2021/05/10 05:07:54;;;;;;;3.95;3.28;;;;;;;25.55;27.85;94531.91;6096046;23;20037;-87
2021/05/10 05:10:22;;;;;;;7.53;3.13;;;;;;;25.92;27.12;94518.44;6080652;23;20026;-88
2021/05/10 05:12:49;;;;;;;5.80;3.45;;;;;;;26.11;27.03;94512.88;6082752;23;20069;-87
2021/05/10 05:15:19;;;;;;;6.95;3.60;;;;;;;26.59;26.19;94526.59;6082298;23;21004;-88
2021/05/10 05:17:44;;;;;;;4.65;2.67;;;;;;;27.09;25.43;94522.44;6091620;23;20014;-87
2021/05/10 05:20:11;;;;;;;6.25;2.70;;;;;;;27.22;25.35;94520.22;6095331;23;20485;-86
2021/05/10 05:22:37;;;;;;;3.60;2.92;;;;;;;27.00;25.56;94524.69;6081545;23;20029;-84
2021/05/10 05:25:04;;;;;;;5.47;3.22;;;;;;;27.96;24.76;94521.47;6083628;23;20018;-87
2021/05/10 05:27:30;;;;;;;6.38;3.17;;;;;;;28.18;24.84;94516.16;6083665;23;20018;-87
2021/05/10 05:29:55;;;;;;;8.20;4.15;;;;;;;28.71;23.90;94511.69;6065155;23;20094;-87
2021/05/10 05:32:22;;;;;;;10.65;3.97;;;;;;;29.19;23.54;94508.59;6089970;23;20452;-87
2021/05/10 05:34:48;;;;;;;8.88;3.42;;;;;;;29.60;22.90;94506.25;6085155;23;20017;-85
2021/05/10 05:37:16;;;;;;;3.20;2.50;;;;;;;29.57;22.54;94507.03;6084748;23;20093;-88
2021/05/10 05:39:42;;;;;;;6.85;2.42;;;;;;;29.94;22.44;94509.31;6068634;23;20037;-88
2021/05/10 05:42:07;;;;;;;5.50;2.67;;;;;;;29.89;22.08;94512.44;6083050;23;20014;-87
2021/05/10 05:44:36;;;;;;;4.68;2.85;;;;;;;29.57;22.76;94512.47;6065465;23;20411;-88
2021/05/10 05:47:03;;;;;;;5.07;2.95;;;;;;;30.04;21.97;94522.13;6060941;23;20006;-89
2021/05/10 05:49:30;;;;;;;5.95;3.40;;;;;;;29.21;23.57;94522.63;6070158;23;20066;-85
2021/05/10 05:51:59;;;;;;;6.00;2.92;;;;;;;29.17;22.61;94511.72;6076614;23;20046;-86
2021/05/10 05:54:24;;;;;;;8.32;3.33;;;;;;;29.07;23.03;94528.06;6082884;23;20453;-86
2021/05/10 05:56:51;;;;;;;8.80;3.03;;;;;;;28.75;22.96;94517.91;6062279;23;20034;-84
2021/05/10 05:59:16;;;;;;;5.53;3.30;;;;;;;28.36;23.45;94527.88;6063608;23;20013;-87
2021/05/10 06:01:42;;;;;;;6.80;3.05;;;;;;;28.18;24.01;94521.59;6085757;23;20014;-86
2021/05/10 06:04:07;;;;;;;8.68;2.85;;;;;;;28.33;23.60;94523.22;6080069;23;20018;-86
2021/05/10 06:06:33;;;;;;;9.20;3.08;;;;;;;28.75;23.84;94517.91;6086650;23;20613;-85
2021/05/10 06:08:58;;;;;;;5.43;2.38;;;;;;;29.31;22.97;94532.75;6080071;23;20092;-86
2021/05/10 06:11:24;;;;;;;7.03;2.20;;;;;;;29.99;22.49;94528.00;6065112;23;20061;-89
2021/05/10 06:13:49;;;;;;;4.47;2.00;;;;;;;30.08;22.10;94515.50;6092240;23;20397;-88
2021/05/10 06:16:15;;;;;;;5.60;2.63;;;;;;;30.75;21.12;94505.44;6078990;23;20105;-86
2021/05/10 06:18:43;;;;;;;7.47;2.00;;;;;;;30.43;22.01;94525.47;6086567;23;20033;-88
2021/05/10 06:21:09;;;;;;;5.25;2.17;;;;;;;31.28;20.33;94503.13;6087702;23;20026;-88
2021/05/10 06:23:34;;;;;;;5.88;2.60;;;;;;;30.64;21.47;94508.25;6077439;23;20018;-87
2021/05/10 06:26:06;;;;;;;9.07;2.75;;;;;;;30.73;21.39;94507.81;6083658;23;20053;-83
2021/05/10 06:28:34;;;;;;;6.85;2.92;;;;;;;30.72;21.62;94506.25;6081108;23;20552;-88
2021/05/10 06:30:59;;;;;;;9.82;2.58;;;;;;;30.05;21.57;94504.63;6080181;23;20658;-86
2021/05/10 06:33:25;;;;;;;8.93;2.70;;;;;;;30.76;21.45;94505.06;6081927;23;20014;-85
2021/05/10 06:35:51;;;;;;;14.23;2.63;;;;;;;30.88;21.54;94498.34;6091424;23;20039;-88
2021/05/10 06:38:16;;;;;;;4.43;2.28;;;;;;;30.95;21.17;94498.28;6090232;23;20430;-87
2021/05/10 06:40:42;;;;;;;6.13;2.75;;;;;;;31.04;21.54;94498.63;6082360;23;20290;-87
2021/05/10 06:43:08;;;;;;;8.52;2.33;;;;;;;30.51;21.58;94494.28;6080851;23;20456;-87
2021/05/10 06:45:33;;;;;;;3.65;2.10;;;;;;;29.99;22.23;94473.47;6085960;23;20015;-90
2021/05/10 06:47:59;;;;;;;7.50;2.65;;;;;;;30.86;21.55;94481.59;6081740;23;20010;-87
2021/05/10 06:50:24;;;;;;;3.70;1.70;;;;;;;31.59;20.99;94490.38;6050430;23;20053;-86
2021/05/10 06:52:50;;;;;;;7.22;2.33;;;;;;;32.07;20.07;94489.47;6068381;23;20431;-89
2021/05/10 06:55:15;;;;;;;7.28;2.50;;;;;;;32.36;20.32;94481.72;6082917;23;20044;-86
2021/05/10 06:57:43;;;;;;;6.28;2.22;;;;;;;32.25;19.71;94488.09;6084190;23;20097;-87
2021/05/10 07:00:09;;;;;;;4.53;2.03;;;;;;;31.57;20.55;94475.59;6080640;23;20054;-85
2021/05/10 07:02:35;;;;;;;11.55;2.17;;;;;;;31.63;20.62;94479.41;6081046;23;20101;-87
2021/05/10 07:05:04;;;;;;;5.50;2.05;;;;;;;32.37;19.93;94483.25;6084027;23;20034;-88
2021/05/10 07:07:38;;;;;;;8.35;2.72;;;;;;;32.11;20.16;94482.78;6084964;23;20074;-87
2021/05/10 07:10:04;;;;;;;;;;;;;;;32.44;20.18;94488.66;6086656;23;20327;-85
2021/05/10 07:12:30;;;;;;;11.73;1.95;;;;;;;32.64;19.59;94487.63;6082075;23;19916;-90
2021/05/10 07:14:55;;;;;;;9.55;2.42;;;;;;;32.68;19.49;94482.09;6079798;23;20081;-88
2021/05/10 07:17:20;;;;;;;4.95;2.20;;;;;;;33.12;18.94;94486.50;6092552;23;20014;-91
2021/05/10 07:19:46;;;;;;;5.43;2.15;;;;;;;32.51;19.78;94466.66;6091589;23;20497;-88
2021/05/10 07:22:11;;;;;;;5.32;1.80;;;;;;;33.04;19.13;94483.09;6080309;23;20026;-91
2021/05/10 07:24:39;;;;;;;5.38;2.13;;;;;;;33.06;18.89;94480.72;6067629;23;20198;-86
2021/05/10 07:27:05;;;;;;;5.32;2.58;;;;;;;33.78;18.97;94472.84;6086625;23;20069;-87
2021/05/10 07:29:35;;;;;;;11.32;2.72;;;;;;;33.91;18.25;94457.34;6075999;23;20011;-91
2021/05/10 07:32:00;;;;;;;12.65;1.90;;;;;;;34.55;17.87;94480.72;6080733;23;20340;-91
2021/05/10 07:34:27;;;;;;;4.68;1.83;;;;;;;34.81;18.08;94484.50;6080916;23;20109;-88
2021/05/10 07:36:52;;;;;;;4.35;2.00;;;;;;;33.55;18.31;94481.09;6063507;23;20527;-88
2021/05/10 07:39:18;;;;;;;6.57;1.77;;;;;;;32.99;18.83;94483.56;6087821;23;20181;-88
2021/05/10 07:41:46;;;;;;;6.28;1.60;;;;;;;33.12;19.60;94482.97;6086952;23;20102;-84
2021/05/10 07:44:11;;;;;;;6.07;2.00;;;;;;;34.32;18.34;94480.81;6087706;23;20006;-87
2021/05/10 07:46:37;;;;;;;4.60;1.73;;;;;;;34.16;18.19;94472.53;6082454;23;20040;-86
2021/05/10 07:49:03;;;;;;;7.07;1.58;;;;;;;34.05;18.49;94469.22;6081861;23;20430;-90
2021/05/10 07:51:28;;;;;;;7.88;2.17;;;;;;;34.40;17.90;94474.00;6099410;23;20056;-87
2021/05/10 07:53:55;;;;;;;9.15;1.90;;;;;;;34.40;17.85;94470.50;6081317;23;20069;-88
2021/05/10 07:56:20;;;;;;;5.75;2.25;;;;;;;34.65;18.10;94460.50;6081099;23;20011;-90
2021/05/10 07:58:47;;;;;;;5.93;2.33;;;;;;;34.87;17.74;94465.53;6092771;23;20003;-89
2021/05/10 08:01:13;;;;;;;4.35;1.83;;;;;;;35.15;17.71;94471.13;6085894;23;20011;-89
2021/05/10 08:03:41;;;;;;;4.78;1.52;;;;;;;36.10;16.93;94472.63;6079950;23;20352;-89
2021/05/10 08:06:08;;;;;;;3.47;1.77;;;;;;;35.81;16.42;94458.13;6089208;23;20029;-89
2021/05/10 08:08:34;;;;;;;7.65;1.92;;;;;;;36.23;16.40;94469.94;6090250;23;20011;-92
2021/05/10 08:11:04;;;;;;;5.78;1.77;;;;;;;36.33;16.11;94460.59;6087729;23;20019;-89
2021/05/10 08:13:29;;;;;;;8.07;2.03;;;;;;;36.19;16.75;94459.03;6075904;23;20018;-90
2021/05/10 08:15:55;;;;;;;5.13;1.42;;;;;;;36.02;16.16;94463.00;6077911;23;20089;-92
2021/05/10 08:18:23;;;;;;;5.32;1.90;;;;;;;35.32;17.00;94449.94;6082348;23;20057;-90
2021/05/10 08:20:48;;;;;;;7.20;1.65;;;;;;;36.39;16.72;94454.13;6076745;23;20041;-89
2021/05/10 08:23:14;;;;;;;7.00;1.98;;;;;;;36.80;15.90;94438.75;6095464;23;20405;-88
2021/05/10 08:25:41;;;;;;;3.88;1.65;;;;;;;36.88;15.77;94445.56;6078353;23;20101;-89
2021/05/10 08:28:07;;;;;;;8.40;1.77;;;;;;;37.09;15.41;94447.69;6081251;23;20303;-89
2021/05/10 08:30:33;;;;;;;9.30;1.90;;;;;;;36.67;16.57;94448.97;6084991;23;20018;-90
2021/05/10 08:33:01;;;;;;;3.20;1.40;;;;;;;36.99;16.19;94434.22;6089209;23;20021;-89
2021/05/10 08:35:27;;;;;;;2.35;1.60;;;;;;;36.27;16.04;94430.09;6090751;23;20009;-90
2021/05/10 08:37:52;;;;;;;7.20;1.88;;;;;;;36.29;16.42;94419.41;6083771;23;20010;-87
2021/05/10 08:40:17;;;;;;;3.70;1.67;;;;;;;35.59;16.60;94436.66;6084007;23;20014;-89
2021/05/10 08:42:44;;;;;;;11.50;1.60;;;;;;;33.45;18.79;94424.50;6079786;23;20018;-87
2021/05/10 08:45:19;;;;;;;1.90;1.42;;;;;;;33.20;18.89;94424.19;6088508;23;20180;-85
2021/05/10 08:47:45;;;;;;;2.22;1.75;;;;;;;33.44;19.04;94423.75;6086479;23;20472;-88
2021/05/10 08:50:12;;;;;;;11.65;2.55;;;;;;;34.11;18.42;94416.16;6094303;23;20029;-87
2021/05/10 08:52:37;;;;;;;4.38;1.92;;;;;;;33.96;18.65;94411.44;6081607;23;20038;-87
2021/05/10 08:55:04;;;;;;;5.60;1.90;;;;;;;33.52;18.24;94418.91;6084333;23;20026;-90
2021/05/10 08:57:29;;;;;;;2.80;1.50;;;;;;;33.26;18.54;94412.34;6079826;23;20265;-87
2021/05/10 08:59:58;;;;;;;3.55;1.55;;;;;;;32.90;19.38;94401.16;6085667;23;20010;-89
2021/05/10 09:02:34;;;;;;;4.53;1.50;;;;;;;32.66;19.08;94408.59;6089227;23;20026;-85
2021/05/10 09:05:10;;;;;;;6.28;1.75;;;;;;;31.83;20.23;94403.84;6095971;23;20113;-87
2021/05/10 09:07:36;;;;;;;4.03;1.50;;;;;;;31.58;20.37;94397.88;6082802;23;20011;-88
2021/05/10 09:10:07;;;;;;;5.60;1.55;;;;;;;32.78;19.53;94410.00;6080277;23;20441;-87
2021/05/10 09:12:56;;;;;;;9.23;1.70;;;;;;;31.87;20.27;94385.44;6080282;23;20022;-87
2021/05/10 09:15:24;;;;;;;5.00;1.80;;;;;;;31.22;20.97;94398.25;6080741;23;20353;-86
2021/05/10 09:17:56;;;;;;;3.15;1.40;;;;;;;31.30;20.87;94391.53;6083057;23;20092;-87
2021/05/10 09:20:24;;;;;;;5.53;1.38;;;;;;;32.07;20.30;94391.03;6090261;23;20081;-86
2021/05/10 09:22:58;;;;;;;7.93;1.67;;;;;;;29.80;22.04;94381.28;6080205;23;20018;-87
2021/05/10 09:25:38;;;;;;;6.13;2.10;;;;;;;29.44;22.94;94389.59;6071728;23;20022;-87
2021/05/10 09:28:21;;;;;;;8.55;1.50;;;;;;;28.97;23.96;94371.78;6081181;23;20018;-91
2021/05/10 09:30:49;;;;;;;8.85;2.22;;;;;;;28.82;23.92;94371.03;6085629;23;20049;-92
2021/05/10 09:33:27;;;;;;;4.43;2.22;;;;;;;27.68;25.01;94374.69;6076305;23;20018;-83
2021/05/10 09:35:58;;;;;;;7.00;1.98;;;;;;;26.84;26.12;94369.53;6086782;23;20044;-89
2021/05/10 09:38:29;;;;;;;7.93;2.10;;;;;;;26.12;27.69;94362.75;6080383;23;20321;-87
2021/05/10 09:40:55;;;;;;;6.68;1.80;;;;;;;25.73;28.17;94370.47;6080973;23;20037;-90
2021/05/10 09:43:33;;;;;;;3.88;1.58;;;;;;;25.12;28.59;94356.56;6081453;23;20027;-89
2021/05/10 09:46:03;;;;;;;10.13;2.20;;;;;;;24.13;30.15;94342.28;6068792;23;20015;-88
2021/05/10 09:48:39;;;;;;;6.13;1.88;;;;;;;23.82;31.82;94354.06;6087673;23;20022;-86
2021/05/10 09:51:05;;;;;;;4.90;1.80;;;;;;;24.22;31.04;94367.16;6088695;23;20026;-87
2021/05/10 09:54:10;;;;;;;8.30;2.45;;;;;;;24.29;30.48;94353.75;6081931;23;20050;-88
2021/05/10 09:56:37;;;;;;;2.35;2.13;;;;;;;24.13;30.90;94363.91;6066782;23;20061;-88
2021/05/10 09:59:04;;;;;;;6.43;2.17;;;;;;;23.99;31.94;94342.84;6080545;23;20149;-88
2021/05/10 10:01:47;;;;;;;5.47;1.88;;;;;;;23.93;31.20;94344.25;6081564;23;20373;-85
2021/05/10 10:04:21;;;;;;;3.05;1.77;;;;;;;23.60;31.55;94342.09;6080123;23;20015;-88
2021/05/10 10:06:47;;;;;;;4.18;1.83;;;;;;;23.39;32.41;94352.47;6085784;23;20061;-90
2021/05/10 10:09:13;;;;;;;8.82;2.20;;;;;;;23.43;32.41;94339.81;6082075;23;20042;-87
2021/05/10 10:11:41;;;;;;;6.63;2.08;;;;;;;23.67;31.49;94347.66;6090476;23;20014;-84
2021/05/10 10:14:07;;;;;;;3.45;2.00;;;;;;;23.71;31.35;94337.69;6083541;23;20465;-87
2021/05/10 10:16:34;;;;;;;8.18;2.13;;;;;;;23.66;32.49;94351.47;6083129;23;20018;-89
2021/05/10 10:19:06;;;;;;;4.85;2.28;;;;;;;23.39;31.56;94341.69;6076780;23;20033;-85
2021/05/10 10:21:35;;;;;;;3.65;2.10;;;;;;;23.28;32.63;94348.78;6085663;23;20021;-84
2021/05/10 10:24:11;;;;;;;4.47;1.70;;;;;;;23.16;33.14;94343.53;6065923;23;20033;-82
2021/05/10 10:26:40;;;;;;;4.50;1.80;;;;;;;22.78;32.61;94336.16;6084420;23;20049;-82
2021/05/10 10:29:11;;;;;;;4.82;2.35;;;;;;;23.01;32.62;94341.69;6086002;23;20010;-85
2021/05/10 10:31:45;;;;;;;10.68;1.77;;;;;;;23.16;33.24;94335.44;6072874;23;20019;-84
2021/05/10 10:34:15;;;;;;;5.75;1.90;;;;;;;23.12;33.24;94327.25;6066045;23;20026;-83
2021/05/10 10:36:48;;;;;;;5.53;1.70;;;;;;;23.50;32.55;94323.03;6069734;23;20109;-86
2021/05/10 10:39:27;;;;;;;5.53;2.20;;;;;;;23.48;32.29;94318.00;6064744;23;20085;-85
2021/05/10 10:42:03;;;;;;;5.45;2.15;;;;;;;23.42;31.82;94330.16;6074153;23;20818;-84
2021/05/10 10:44:42;;;;;;;10.27;2.00;;;;;;;23.29;33.28;94320.69;6064908;23;20316;-87
2021/05/10 10:47:43;;;;;;;2.70;2.10;;;;;;;23.28;32.68;94313.72;6070942;23;20012;-86
2021/05/10 10:50:09;;;;;;;4.78;1.77;;;;;;;23.17;32.69;94320.81;6068721;23;20022;-88
2021/05/10 10:52:46;;;;;;;7.38;2.08;;;;;;;22.88;32.70;94309.44;6068914;23;20032;-85
2021/05/10 10:55:15;;;;;;;6.03;1.85;;;;;;;23.20;32.94;94312.03;6060649;23;20044;-90
2021/05/10 10:57:47;;;;;;;4.95;2.00;;;;;;;23.22;32.90;94309.72;6068836;23;20117;-83
2021/05/10 11:00:16;;;;;;;5.80;2.00;;;;;;;23.37;33.39;94302.69;6082524;23;20026;-88
2021/05/10 11:02:47;;;;;;;2.80;1.77;;;;;;;23.66;33.30;94296.72;6078962;23;20041;-86
2021/05/10 11:05:13;;;;;;;7.32;1.75;;;;;;;23.72;31.55;94298.00;6074773;23;20547;-88
2021/05/10 11:08:08;;;;;;;3.88;1.70;;;;;;;23.80;31.99;94298.91;6080652;23;20014;-85
2021/05/10 11:10:51;;;;;;;2.75;2.00;;;;;;;23.62;33.18;94288.56;6075896;23;20018;-87
2021/05/10 11:13:41;;;;;;;2.50;1.60;;;;;;;23.41;32.16;94290.84;6081522;23;20102;-85
2021/05/10 11:16:09;;;;;;;5.93;2.00;;;;;;;23.32;32.69;94276.81;6068495;23;20018;-88
2021/05/10 11:19:31;;;;;;;2.13;1.65;;;;;;;23.35;32.34;94283.41;6078721;23;20026;-94
2021/05/10 11:22:47;;;;;;;4.45;2.33;;;;;;;23.21;32.45;94278.53;5869954;23;20029;-94
2021/05/10 11:26:02;;;;;;;6.55;2.00;;;;;;;23.47;32.91;94275.97;5877791;23;20099;-91
2021/05/10 11:28:32;;;;;;;4.75;1.95;;;;;;;23.73;32.32;94253.69;5934296;23;20040;-96
2021/05/10 11:31:31;;;;;;;;;;;;;;;;;;;;;
2021/05/10 11:34:07;;;;;;;10.98;2.38;;;;;;;23.59;32.50;94262.31;5901774;23;20025;-88
2021/05/10 11:37:32;;;;;;;4.40;2.03;;;;;;;23.67;33.18;94255.13;5970929;23;20039;-93
2021/05/10 11:40:09;;;;;;;6.30;2.17;;;;;;;23.52;31.69;94221.72;5846602;24;20149;-95
2021/05/10 11:42:46;;;;;;;3.72;2.33;;;;;;;23.30;32.75;94200.91;5914613;23;20104;-91
2021/05/10 11:45:12;;;;;;;4.38;2.45;;;;;;;23.49;32.53;94224.34;5992728;23;20111;-94
2021/05/10 11:48:05;;;;;;;5.35;2.00;;;;;;;23.72;32.29;94242.09;5980761;23;20047;-95